ADDS TAF Board (Experimental) INFO Settings
IDs: Format: Expanded Condensed

KSAN - San Diego Intl Arpt, CA, US

Issued at 1732 UTC 06 May 2016
Updated at: 1847 UTC 06 May 2016
Time1751Z 06/19Z 06/20Z 06/21Z 06/22Z 06/23Z 07/00Z 07/01Z 07/02Z 07/03Z 07/04Z 07/05Z 07/06Z 07/07Z
Type OBS PRVL PRVL PRVL PRVL PRVL PRVL PRVL PRVL PRVL PRVL PRVL PRVL PRVL
VIS 10 >6 >6 >6 >6 >6 >6 >6 >6 >6 >6 >6 >6 >6
CIG 35 35 50 50 50 50 50 50 25 25 25 25 25 25
Cover BKN BKN BKN BKN BKN BKN BKN BKN BKN BKN BKN BKN BKN BKN
FltCat VFR VFR VFR VFR VFR VFR VFR VFR MVFR MVFR MVFR MVFR MVFR MVFR
WX -- -SHRA -SHRA -SHRA -SHRA -SHRA -SHRA -SHRA VCSH VCSH VCSH VCSH VCSH VCSH
WDir 160 210 240 240 240 240 240 240 270 270 270 270 270 270
WSpd 5 10 10 10 10 10 10 10 6 6 6 6 6 6
WGst -- -- 18 18 18 18 18 18 -- -- -- -- -- --
R09/27
XWnd -4 -10 -7 -7 -7 -7 -7 -7 -2 -2 -2 -2 -2 -2
XGst -- -- -13 -13 -13 -13 -13 -13 -- -- -- -- -- --
HWnd 3 -2 -7 -7 -7 -7 -7 -7 -6 -6 -6 -6 -6 -6
HGst -- -- -13 -13 -13 -13 -13 -13 -- -- -- -- -- --

NOTE: TEMPO conditions in [brackets]. Keep in mind TEMPO conditions might be better (lower impact) than prevailing conditions.

Raw TAF
KSAN 061732Z 0618/0724 21010KT P6SM -SHRA SCT018 BKN035
  FM062000 24010G18KT P6SM -SHRA SCT015 BKN050
  FM070200 27006KT P6SM VCSH SCT015 BKN025
  FM070800 VRB05KT P6SM BKN025 BKN040
  FM071900 24010KT P6SM SCT025 SCT040


Raw METAR
KSAN 061751Z 16005KT 10SM SCT011 BKN035 BKN070 BKN140 16/12 A2995 RMK AO2 RAE28 SLP141 P0001 60011 T01610122 10161 20150 51016
KSAN 061651Z 15007KT 8SM -RA FEW011 SCT017 BKN048 15/12 A2993 RMK AO2 SLP136 P0006 T01500117
KSAN 061551Z 00000KT 10SM -RA SCT011 BKN060 BKN150 16/11 A2993 RMK AO2 SLP134 P0000 T01560106

METAR Board
Radar Display
Forecast Discussion

TAF Board Legend

Potential Impact
Threat None Slight Moderate High
Visibility (sm) ≥5.1 5.1>X≥3 3>X≥1 <1
Ceiling (100 ft) ≥30.1 30.1>X≥10 10>X≥5 <5
Wind Speed (kt) <10 10≤X<20 20≤X<30 ≥30
Wind Gust (kt) <15 15≤X<25 25≤X<35 ≥35
Weather No Wx Reported VCTS,-TS,-FZRA,SN TS,FZRA +TS,+FZRA,+SN